Time;durP1;ratioP1;P1;durP2;ratioP2;P2;SDS_P1;SDS_P2;PMS_P1;PMS_P2;Temp;Humidity;BMP_temperature;BMP_pressure;BME280_temperature;BME280_humidity;BME280_pressure;Samples;Min_cycle;Max_cycle;Signal;HPM_P1;HPM_P2
2022/10/17 00:01:30;;;;;;;11.50;5.30;;;11.80;99.90;;;;;;6239595;23;20012;-85
2022/10/17 00:03:56;;;;;;;12.75;4.78;;;11.70;99.90;;;;;;6241366;23;20862;-85
2022/10/17 00:06:21;;;;;;;11.35;4.28;;;11.70;99.90;;;;;;6239613;23;20399;-85
2022/10/17 00:08:47;;;;;;;14.55;4.50;;;11.70;99.90;;;;;;6239292;23;20047;-85
2022/10/17 00:11:17;;;;;;;8.75;4.15;;;11.80;99.90;;;;;;6238758;23;20027;-85
2022/10/17 00:13:44;;;;;;;8.73;4.00;;;11.70;99.90;;;;;;6241823;23;20035;-82
2022/10/17 00:16:10;;;;;;;12.50;4.57;;;11.80;99.90;;;;;;6239504;23;20012;-85
2022/10/17 00:18:35;;;;;;;10.93;4.53;;;11.70;99.90;;;;;;6239771;23;20012;-85
2022/10/17 00:21:01;;;;;;;9.68;3.90;;;11.70;99.90;;;;;;6239364;23;20035;-85
2022/10/17 00:23:27;;;;;;;12.57;4.68;;;11.80;99.90;;;;;;6247696;22;20016;-85
2022/10/17 00:26:04;;;;;;;9.75;3.50;;;11.80;99.90;;;;;;6271965;22;20043;-85
2022/10/17 00:28:30;;;;;;;12.55;4.13;;;11.80;99.90;;;;;;6270999;22;20331;-85
2022/10/17 00:31:02;;;;;;;12.32;4.10;;;11.80;99.90;;;;;;6244359;22;20020;-85
2022/10/17 00:33:29;;;;;;;12.82;4.03;;;11.80;99.90;;;;;;6244636;22;20003;-85
2022/10/17 00:36:02;;;;;;;9.77;4.13;;;11.80;99.90;;;;;;6245160;22;20012;-85
2022/10/17 00:38:28;;;;;;;9.85;4.03;;;11.80;99.90;;;;;;6244292;22;20098;-85
2022/10/17 00:40:54;;;;;;;12.40;4.15;;;11.80;99.90;;;;;;6244563;22;20026;-85
2022/10/17 00:43:19;;;;;;;11.88;4.15;;;11.80;99.90;;;;;;6244098;22;20022;-85
2022/10/17 00:45:45;;;;;;;11.52;3.55;;;11.80;99.90;;;;;;6271318;22;20015;-85
2022/10/17 00:48:11;;;;;;;13.65;3.28;;;11.80;99.90;;;;;;6271884;22;20008;-85
2022/10/17 00:50:40;;;;;;;12.52;3.95;;;12.20;99.90;;;;;;6244075;22;20020;-84
2022/10/17 00:53:08;;;;;;;8.43;3.85;;;11.90;99.90;;;;;;6218923;22;20681;-86
2022/10/17 00:55:45;;;;;;;11.18;4.30;;;11.90;99.90;;;;;;6271560;22;20090;-85
2022/10/17 00:58:11;;;;;;;11.20;3.72;;;12.00;99.90;;;;;;6271361;22;20509;-85
2022/10/17 01:00:37;;;;;;;14.70;3.63;;;12.00;99.90;;;;;;6271533;22;20015;-85
2022/10/17 01:03:03;;;;;;;11.00;3.47;;;12.10;99.90;;;;;;6244372;22;20012;-85
2022/10/17 01:05:29;;;;;;;11.93;3.85;;;12.20;99.90;;;;;;6270640;22;20012;-85
2022/10/17 01:07:55;;;;;;;10.52;3.53;;;12.10;99.90;;;;;;6244025;22;20073;-85
2022/10/17 01:10:23;;;;;;;9.60;3.35;;;12.20;99.90;;;;;;6244309;22;20016;-85
2022/10/17 01:13:04;;;;;;;10.88;3.70;;;12.20;99.90;;;;;;6244178;22;20087;-85
2022/10/17 01:16:10;;;;;;;10.07;4.07;;;12.20;99.90;;;;;;6244503;22;20117;-85
2022/10/17 01:18:50;;;;;;;17.23;3.95;;;12.20;99.90;;;;;;6244544;22;20726;-86
2022/10/17 01:21:33;;;;;;;10.55;3.75;;;12.30;99.90;;;;;;6243741;22;20841;-84
2022/10/17 01:24:26;;;;;;;7.90;3.08;;;12.30;99.90;;;;;;6243419;22;20447;-86
2022/10/17 01:27:17;;;;;;;12.60;3.97;;;12.30;99.90;;;;;;6271531;22;20043;-85
2022/10/17 01:30:23;;;;;;;9.57;3.40;;;12.30;99.90;;;;;;6271059;22;20064;-86
2022/10/17 01:32:52;;;;;;;12.93;4.45;;;12.30;99.90;;;;;;6271285;22;20016;-85
2022/10/17 01:35:43;;;;;;;9.95;4.00;;;12.40;99.90;;;;;;6270579;22;20023;-85
2022/10/17 01:38:40;;;;;;;8.32;3.47;;;12.40;99.90;;;;;;6270950;22;20012;-85
2022/10/17 01:41:24;;;;;;;9.45;4.28;;;12.40;99.90;;;;;;6217862;22;20023;-85
2022/10/17 01:44:02;;;;;;;12.88;3.85;;;12.40;99.90;;;;;;6243871;22;20016;-85
2022/10/17 01:46:40;;;;;;;6.85;3.80;;;12.40;99.90;;;;;;6244004;22;20428;-85
2022/10/17 01:49:08;;;;;;;9.80;4.15;;;12.40;99.90;;;;;;6243382;22;20016;-85
2022/10/17 01:51:38;;;;;;;7.53;3.83;;;12.40;99.90;;;;;;6243712;22;20011;-85
2022/10/17 01:54:15;;;;;;;9.63;4.15;;;12.40;99.90;;;;;;6270285;22;20510;-86
2022/10/17 01:56:43;;;;;;;9.25;4.10;;;12.40;99.90;;;;;;6271317;22;20011;-85
2022/10/17 01:59:23;;;;;;;11.23;4.15;;;12.40;99.90;;;;;;6243928;22;20447;-85
2022/10/17 02:01:53;;;;;;;10.98;4.65;;;12.40;99.90;;;;;;6271887;22;20007;-85
2022/10/17 02:04:19;;;;;;;13.30;4.45;;;12.40;99.90;;;;;;6243857;22;20027;-85
2022/10/17 02:06:45;;;;;;;15.63;5.13;;;12.40;99.90;;;;;;6271210;22;20012;-85
2022/10/17 02:09:25;;;;;;;12.00;5.22;;;12.40;99.90;;;;;;6244013;22;20416;-85
2022/10/17 02:12:05;;;;;;;8.63;5.07;;;12.30;99.90;;;;;;6243949;22;20012;-85
2022/10/17 02:14:48;;;;;;;12.10;5.38;;;12.30;99.90;;;;;;6271401;22;20700;-85
2022/10/17 02:17:43;;;;;;;11.70;5.53;;;12.20;99.90;;;;;;6244188;22;20364;-85
2022/10/17 02:20:15;;;;;;;;;;;12.20;99.90;;;;;;6244206;22;20027;-85
2022/10/17 02:23:22;;;;;;;15.07;5.45;;;12.20;99.90;;;;;;6244098;22;20341;-85
2022/10/17 02:25:54;;;;;;;9.48;4.93;;;12.20;99.90;;;;;;6147345;23;20125;-85
2022/10/17 02:28:38;;;;;;;11.52;6.22;;;12.20;99.90;;;;;;6146944;23;20052;-85
2022/10/17 02:31:12;;;;;;;11.07;5.90;;;12.10;99.90;;;;;;6147249;23;20084;-85
2022/10/17 02:33:53;;;;;;;9.13;5.88;;;12.10;99.90;;;;;;6146681;23;20017;-85
2022/10/17 02:36:24;;;;;;;11.90;6.35;;;12.10;99.90;;;;;;6147320;23;20814;-85
2022/10/17 02:38:51;;;;;;;9.88;5.53;;;12.10;99.90;;;;;;6122926;23;20026;-85
2022/10/17 02:41:18;;;;;;;12.57;6.30;;;12.10;99.90;;;;;;6122501;23;20489;-85
2022/10/17 02:43:46;;;;;;;10.52;6.38;;;12.10;99.90;;;;;;6147758;23;20013;-85
2022/10/17 02:46:19;;;;;;;10.82;5.97;;;12.10;99.90;;;;;;6122282;23;20053;-85
2022/10/17 02:48:56;;;;;;;15.15;6.65;;;12.10;99.90;;;;;;6146635;23;20028;-86
2022/10/17 02:51:46;;;;;;;11.30;6.13;;;12.10;99.90;;;;;;6147264;23;20342;-85
2022/10/17 02:54:17;;;;;;;13.80;6.30;;;12.10;99.90;;;;;;6123796;23;20028;-85
2022/10/17 02:56:52;;;;;;;11.15;6.10;;;12.00;99.90;;;;;;6124324;23;20017;-85
2022/10/17 02:59:20;;;;;;;12.13;6.28;;;12.00;99.90;;;;;;6189978;22;20454;-86
2022/10/17 03:01:48;;;;;;;11.32;6.53;;;12.00;99.90;;;;;;6244837;22;20027;-86
2022/10/17 03:04:14;;;;;;;11.20;6.85;;;12.00;99.90;;;;;;6272759;22;20082;-86
2022/10/17 03:06:40;;;;;;;8.23;6.00;;;12.00;99.90;;;;;;6245357;22;20064;-85
2022/10/17 03:09:06;;;;;;;9.73;6.68;;;12.00;99.90;;;;;;6245409;22;20443;-86
2022/10/17 03:11:33;;;;;;;15.50;8.73;;;12.00;99.90;;;;;;6245231;22;20366;-86
2022/10/17 03:13:58;;;;;;;10.73;7.25;;;12.00;99.90;;;;;;6245233;22;20016;-85
2022/10/17 03:16:24;;;;;;;12.63;7.38;;;12.00;99.90;;;;;;6244708;22;20016;-86
2022/10/17 03:18:50;;;;;;;13.85;8.25;;;12.00;99.90;;;;;;6272956;22;20328;-85
2022/10/17 03:21:16;;;;;;;9.90;7.03;;;12.00;99.90;;;;;;6244811;22;20020;-86
2022/10/17 03:23:41;;;;;;;15.27;8.38;;;12.00;99.90;;;;;;6244496;22;20066;-85
2022/10/17 03:26:07;;;;;;;18.25;8.30;;;12.00;99.90;;;;;;6245311;22;20011;-85
2022/10/17 03:28:33;;;;;;;13.60;7.93;;;12.00;99.90;;;;;;6245234;22;20073;-85
2022/10/17 03:30:59;;;;;;;12.35;7.55;;;12.00;99.90;;;;;;6271939;22;20008;-86
2022/10/17 03:33:24;;;;;;;13.35;8.70;;;12.00;99.90;;;;;;6272580;22;20371;-85
2022/10/17 03:35:50;;;;;;;13.15;8.95;;;12.00;99.90;;;;;;6272006;22;20325;-85
2022/10/17 03:38:15;;;;;;;14.57;8.50;;;12.00;99.90;;;;;;6245203;22;20626;-85
2022/10/17 03:40:41;;;;;;;16.25;8.68;;;12.00;99.90;;;;;;6272537;22;20385;-84
2022/10/17 03:43:07;;;;;;;12.45;9.13;;;12.00;99.90;;;;;;6272501;22;20012;-85
2022/10/17 03:45:32;;;;;;;18.38;9.70;;;12.00;99.90;;;;;;6244559;22;20317;-85
2022/10/17 03:47:59;;;;;;;14.18;9.30;;;12.00;99.90;;;;;;6272215;22;20012;-85
2022/10/17 03:50:24;;;;;;;13.07;9.60;;;12.00;99.90;;;;;;6244435;22;20063;-85
2022/10/17 03:52:50;;;;;;;14.70;9.50;;;12.00;99.90;;;;;;6218789;22;20431;-85
2022/10/17 03:55:16;;;;;;;18.25;9.82;;;12.00;99.90;;;;;;6272440;22;20011;-85
2022/10/17 03:57:42;;;;;;;12.40;9.35;;;12.00;99.90;;;;;;6272058;22;20069;-85
2022/10/17 04:00:08;;;;;;;16.08;9.65;;;12.00;99.90;;;;;;6271750;22;20366;-85
2022/10/17 04:02:34;;;;;;;14.43;9.82;;;12.10;99.90;;;;;;6244851;22;20004;-85
2022/10/17 04:05:00;;;;;;;16.90;10.85;;;12.10;99.90;;;;;;6219667;22;20317;-86
2022/10/17 04:07:26;;;;;;;13.90;10.38;;;12.10;99.90;;;;;;6245346;22;20463;-85
2022/10/17 04:09:51;;;;;;;12.23;9.95;;;12.10;99.90;;;;;;6271765;22;20016;-86
2022/10/17 04:12:17;;;;;;;16.02;11.43;;;12.20;99.90;;;;;;6245113;22;20019;-85
2022/10/17 04:14:43;;;;;;;15.77;11.25;;;12.20;99.90;;;;;;6244564;22;20497;-85
2022/10/17 04:17:09;;;;;;;17.00;10.88;;;12.20;99.90;;;;;;6245449;22;20067;-84
2022/10/17 04:19:34;;;;;;;15.07;11.52;;;12.30;99.90;;;;;;6244384;22;20069;-85
2022/10/17 04:22:02;;;;;;;13.00;10.60;;;12.30;99.90;;;;;;6271835;22;20012;-85
2022/10/17 04:24:27;;;;;;;20.85;12.35;;;12.30;99.90;;;;;;6244634;22;20015;-85
2022/10/17 04:26:53;;;;;;;21.92;12.85;;;12.40;99.90;;;;;;6244907;22;20019;-86
2022/10/17 04:29:19;;;;;;;18.67;12.10;;;12.40;99.90;;;;;;6271249;22;20046;-85
2022/10/17 04:31:45;;;;;;;20.55;12.55;;;12.50;99.90;;;;;;6219168;22;20073;-85
2022/10/17 04:34:13;;;;;;;21.00;12.23;;;12.50;99.90;;;;;;6271226;22;20018;-85
2022/10/17 04:36:38;;;;;;;22.02;14.55;;;12.60;99.90;;;;;;6244498;22;20043;-86
2022/10/17 04:39:04;;;;;;;20.30;12.82;;;12.60;99.90;;;;;;6218514;22;20012;-85
2022/10/17 04:41:30;;;;;;;20.73;13.90;;;12.70;99.90;;;;;;6244209;22;20020;-86
2022/10/17 04:43:56;;;;;;;25.20;13.65;;;12.70;99.90;;;;;;6244086;22;20313;-85
2022/10/17 04:46:21;;;;;;;19.38;13.85;;;12.70;99.90;;;;;;6243795;22;20065;-85
2022/10/17 04:48:47;;;;;;;19.38;14.00;;;12.80;99.90;;;;;;6271740;22;20007;-85
2022/10/17 04:51:16;;;;;;;23.23;14.48;;;12.80;99.90;;;;;;6244235;22;20023;-86
2022/10/17 04:53:43;;;;;;;21.52;13.90;;;12.90;99.90;;;;;;6244253;22;20023;-85
2022/10/17 04:56:18;;;;;;;23.65;14.38;;;12.90;99.90;;;;;;6271881;22;20022;-86
2022/10/17 04:58:44;;;;;;;20.92;14.60;;;13.00;99.90;;;;;;6218658;22;20011;-85
2022/10/17 05:01:12;;;;;;;21.30;15.05;;;13.10;99.90;;;;;;6244353;22;20331;-85
2022/10/17 05:03:39;;;;;;;22.58;13.52;;;13.10;99.90;;;;;;6244584;22;20012;-85
2022/10/17 05:06:10;;;;;;;20.50;13.38;;;13.20;99.90;;;;;;6271893;22;20015;-85
2022/10/17 05:08:36;;;;;;;22.65;13.27;;;13.20;99.90;;;;;;6272505;22;20007;-85
2022/10/17 05:11:02;;;;;;;20.67;13.52;;;13.20;99.90;;;;;;6271337;22;20067;-85
2022/10/17 05:13:28;;;;;;;19.90;13.38;;;13.20;99.90;;;;;;6244044;22;20066;-85
2022/10/17 05:15:58;;;;;;;20.77;13.43;;;13.30;99.90;;;;;;6272100;22;20016;-85
2022/10/17 05:18:24;;;;;;;20.27;12.95;;;13.30;99.90;;;;;;6244740;22;20011;-85
2022/10/17 05:20:49;;;;;;;18.30;13.15;;;13.20;99.90;;;;;;6244900;22;20386;-86
2022/10/17 05:23:15;;;;;;;19.75;14.40;;;13.30;99.90;;;;;;6272542;22;20011;-85
2022/10/17 05:25:41;;;;;;;22.90;15.23;;;13.20;99.90;;;;;;6245506;22;20714;-84
2022/10/17 05:28:06;;;;;;;20.30;14.13;;;13.30;99.90;;;;;;6271686;22;20019;-85
2022/10/17 05:30:34;;;;;;;20.75;14.25;;;13.30;99.90;;;;;;6272494;22;20015;-85
2022/10/17 05:32:59;;;;;;;24.85;14.70;;;13.30;99.90;;;;;;6272043;22;20081;-84
2022/10/17 05:35:25;;;;;;;20.50;14.68;;;13.30;99.90;;;;;;6220385;22;20015;-83
2022/10/17 05:37:51;;;;;;;19.63;14.68;;;13.30;99.90;;;;;;6245338;22;20083;-85
2022/10/17 05:40:17;;;;;;;28.17;21.42;;;13.40;99.90;;;;;;6272137;22;20468;-85
2022/10/17 05:42:48;;;;;;;21.20;15.45;;;13.40;99.90;;;;;;6219011;22;20012;-85
2022/10/17 05:45:15;;;;;;;31.67;20.40;;;13.40;99.90;;;;;;6272570;22;20317;-85
2022/10/17 05:47:40;;;;;;;24.85;17.65;;;13.40;99.90;;;;;;6272054;22;20022;-86
2022/10/17 05:50:07;;;;;;;24.85;16.92;;;13.30;99.90;;;;;;6272403;22;20447;-87
2022/10/17 05:52:33;;;;;;;21.58;15.15;;;13.40;99.90;;;;;;6272451;22;20014;-87
2022/10/17 05:54:59;;;;;;;23.23;17.45;;;13.40;99.90;;;;;;6273157;22;20078;-87
2022/10/17 05:57:25;;;;;;;21.63;17.27;;;13.40;99.90;;;;;;6244501;22;20348;-86
2022/10/17 05:59:51;;;;;;;23.67;17.38;;;13.50;99.90;;;;;;6273179;22;20003;-85
2022/10/17 06:02:16;;;;;;;21.00;16.38;;;13.50;99.90;;;;;;6244847;22;20099;-85
2022/10/17 06:04:44;;;;;;;19.65;15.73;;;13.50;99.90;;;;;;6245563;22;20381;-86
2022/10/17 06:07:13;;;;;;;24.17;16.33;;;13.50;99.90;;;;;;6220066;22;20436;-85
2022/10/17 06:09:40;;;;;;;21.70;16.40;;;13.50;99.90;;;;;;6272755;22;20019;-86
2022/10/17 06:12:06;;;;;;;22.90;16.48;;;13.50;99.90;;;;;;6272560;22;20461;-86
2022/10/17 06:14:32;;;;;;;22.63;16.70;;;13.50;99.90;;;;;;6273060;22;20094;-85
2022/10/17 06:16:58;;;;;;;23.30;14.75;;;13.60;99.90;;;;;;6245304;22;20062;-84
2022/10/17 06:19:23;;;;;;;22.75;14.52;;;13.50;99.90;;;;;;6245368;22;20011;-84
2022/10/17 06:21:49;;;;;;;25.35;16.63;;;13.60;99.90;;;;;;6245197;22;20016;-83
2022/10/17 06:24:15;;;;;;;23.33;16.30;;;13.70;99.90;;;;;;6244221;22;20051;-83
2022/10/17 06:26:41;;;;;;;25.75;16.50;;;13.60;99.90;;;;;;6245858;22;20016;-84
2022/10/17 06:29:07;;;;;;;23.98;16.33;;;13.70;99.90;;;;;;6247607;22;20012;-86
2022/10/17 06:31:32;;;;;;;23.65;16.50;;;13.70;99.90;;;;;;6222632;22;20423;-86
2022/10/17 06:33:58;;;;;;;22.02;15.50;;;13.80;99.90;;;;;;6246748;22;20019;-86
